Argyle Airport


Codes: YARG/GYL
Name: Argyle Airport
City:
Country: Australia
Elevation: 522 ft.

Photos at Argyle Airport


   Photos courtesy of SpottingLog. You can add your own sightings and photos by signing up for a free trial today.



No photos found.

Weather at Argyle Airport


Time (UTC)DescriptionTempratureWindCloud coverageVisibilityPressureHumidity
13-Jun-2024 03:00Clear Sky28°C9 mph, E4%10000m1015hPa20%
13-Jun-2024 06:00Clear Sky29°C9 mph, NE5%10000m1014hPa19%
13-Jun-2024 09:00Few Clouds26°C2 mph, NE17%10000m1014hPa25%
13-Jun-2024 12:00Few Clouds23°C2 mph, SE24%10000m1015hPa29%
13-Jun-2024 15:00Few Clouds21°C4 mph, SE21%10000m1015hPa30%
13-Jun-2024 18:00Few Clouds19°C4 mph, SE12%10000m1014hPa31%
13-Jun-2024 21:00Clear Sky18°C4 mph, SE0%10000m1015hPa34%
14-Jun-2024 00:00Clear Sky23°C4 mph, SE0%10000m1017hPa24%
14-Jun-2024 03:00Clear Sky28°C9 mph, E0%10000m1015hPa18%
14-Jun-2024 06:00Clear Sky31°C9 mph, NE1%10000m1011hPa15%
14-Jun-2024 09:00Clear Sky25°C4 mph, NE6%10000m1012hPa23%
14-Jun-2024 12:00Few Clouds22°C2 mph, SE11%10000m1014hPa27%
14-Jun-2024 15:00Clear Sky21°C4 mph, S6%10000m1014hPa27%
14-Jun-2024 18:00Clear Sky20°C4 mph, SE4%10000m1014hPa29%
14-Jun-2024 21:00Clear Sky18°C4 mph, SE0%10000m1016hPa34%
15-Jun-2024 00:00Clear Sky24°C7 mph, SE0%10000m1018hPa27%
15-Jun-2024 03:00Clear Sky28°C11 mph, SE9%10000m1015hPa22%
15-Jun-2024 06:00Clear Sky31°C9 mph, NE4%10000m1012hPa18%
15-Jun-2024 09:00Clear Sky25°C2 mph, NE0%10000m1013hPa29%
15-Jun-2024 12:00Clear Sky23°C4 mph, SE0%10000m1015hPa32%
15-Jun-2024 15:00Clear Sky21°C4 mph, SE0%10000m1015hPa37%
15-Jun-2024 18:00Clear Sky19°C4 mph, S0%10000m1015hPa37%
15-Jun-2024 21:00Clear Sky18°C4 mph, SE0%10000m1017hPa39%
16-Jun-2024 00:00Clear Sky23°C9 mph, SE0%10000m1019hPa29%
16-Jun-2024 03:00Clear Sky28°C13 mph, E2%10000m1017hPa22%
16-Jun-2024 06:00Clear Sky31°C13 mph, E3%10000m1014hPa19%
16-Jun-2024 09:00Clear Sky26°C9 mph, E0%10000m1014hPa27%
16-Jun-2024 12:00Clear Sky23°C7 mph, SE0%10000m1017hPa33%
16-Jun-2024 15:00Clear Sky20°C7 mph, SE0%10000m1017hPa36%
16-Jun-2024 18:00Clear Sky19°C4 mph, SE2%10000m1017hPa41%
16-Jun-2024 21:00Clear Sky17°C4 mph, SE5%10000m1018hPa45%
17-Jun-2024 00:00Clear Sky21°C11 mph, SE5%10000m1020hPa32%
17-Jun-2024 03:00Clear Sky27°C16 mph, E3%10000m1018hPa23%
17-Jun-2024 06:00Clear Sky30°C13 mph, E3%10000m1014hPa20%
17-Jun-2024 09:00Clear Sky26°C9 mph, E3%10000m1015hPa29%
17-Jun-2024 12:00Clear Sky22°C7 mph, SE1%10000m1017hPa34%
17-Jun-2024 15:00Clear Sky20°C7 mph, SE3%10000m1018hPa38%
17-Jun-2024 18:00Clear Sky18°C4 mph, SE4%10000m1017hPa43%
17-Jun-2024 21:00Clear Sky17°C4 mph, SE6%10000m1018hPa46%
18-Jun-2024 00:00Clear Sky21°C11 mph, SE6%10000m1019hPa34%